Time;durP1;ratioP1;P1;durP2;ratioP2;P2;SDS_P1;SDS_P2;PMS_P1;PMS_P2;Temp;Humidity;BMP_temperature;BMP_pressure;BME280_temperature;BME280_humidity;BME280_pressure;Samples;Min_cycle;Max_cycle;Signal;HPM_P1;HPM_P2
2023/12/23 00:01:11;;;;;;;17.63;10.43;;;;;;;;;;5028176;28;20025;-85
2023/12/23 00:03:36;;;;;;;20.63;12.10;;;;;;;;;;5010083;28;20028;-85
2023/12/23 00:06:02;;;;;;;26.15;16.15;;;;;;;;;;5010178;28;20040;-85
2023/12/23 00:08:27;;;;;;;17.58;10.40;;;;;;;;;;5010052;28;20025;-85
2023/12/23 00:10:52;;;;;;;23.58;15.73;;;;;;;;;;5012141;28;20087;-84
2023/12/23 00:13:17;;;;;;;25.08;16.83;;;;;;;;;;5009903;28;20324;-85
2023/12/23 00:15:43;;;;;;;14.57;8.48;;;;;;;;;;5027370;28;20465;-85
2023/12/23 00:18:08;;;;;;;16.33;11.48;;;;;;;;;;5027792;28;20047;-87
2023/12/23 00:20:33;;;;;;;31.02;17.30;;;;;;;;;;5027866;28;20025;-87
2023/12/23 00:22:59;;;;;;;23.02;15.00;;;;;;;;;;5023941;28;20029;-85
2023/12/23 00:25:24;;;;;;;27.50;16.33;;;;;;;;;;5027495;28;20053;-87
2023/12/23 00:27:50;;;;;;;29.08;18.58;;;;;;;;;;5007181;28;20037;-87
2023/12/23 00:30:15;;;;;;;15.70;10.18;;;;;;;;;;5027357;28;20033;-87
2023/12/23 00:32:41;;;;;;;14.18;8.90;;;;;;;;;;5026211;28;20060;-87
2023/12/23 00:35:07;;;;;;;9.00;6.15;;;;;;;;;;5009866;28;20537;-87
2023/12/23 00:37:32;;;;;;;33.97;18.48;;;;;;;;;;5027516;28;20038;-87
2023/12/23 00:39:58;;;;;;;12.10;8.80;;;;;;;;;;5027463;28;20028;-86
2023/12/23 00:42:23;;;;;;;18.38;11.15;;;;;;;;;;5025835;28;20411;-87
2023/12/23 00:44:48;;;;;;;12.77;8.05;;;;;;;;;;5008623;28;20120;-87
2023/12/23 00:47:14;;;;;;;19.88;13.30;;;;;;;;;;5027194;28;20033;-87
2023/12/23 00:49:40;;;;;;;26.25;16.63;;;;;;;;;;5008766;28;20309;-87
2023/12/23 00:52:05;;;;;;;20.42;11.38;;;;;;;;;;5026700;28;20053;-87
2023/12/23 00:54:30;;;;;;;14.43;9.68;;;;;;;;;;5026770;28;20104;-87
2023/12/23 00:56:57;;;;;;;13.88;7.95;;;;;;;;;;5027111;28;20446;-87
2023/12/23 00:59:22;;;;;;;22.42;13.15;;;;;;;;;;5023419;28;20501;-86
2023/12/23 01:01:47;;;;;;;31.88;18.50;;;;;;;;;;5026122;28;20140;-87
2023/12/23 01:04:12;;;;;;;19.63;11.90;;;;;;;;;;5008816;28;20064;-87
2023/12/23 01:06:38;;;;;;;9.93;6.93;;;;;;;;;;5025703;28;20037;-87
2023/12/23 01:09:04;;;;;;;16.17;10.45;;;;;;;;;;5007459;28;20038;-87
2023/12/23 01:11:29;;;;;;;21.88;16.00;;;;;;;;;;4993544;28;20134;-87
2023/12/23 01:13:54;;;;;;;24.05;14.20;;;;;;;;;;5001800;28;20308;-87
2023/12/23 01:16:20;;;;;;;75.82;49.10;;;;;;;;;;5012983;28;20025;-87
2023/12/23 01:18:45;;;;;;;10.95;7.97;;;;;;;;;;5030684;28;20033;-87
2023/12/23 01:21:10;;;;;;;18.73;10.65;;;;;;;;;;5012988;28;20499;-88
2023/12/23 01:23:36;;;;;;;13.23;8.32;;;;;;;;;;5012670;28;20117;-87
2023/12/23 01:26:01;;;;;;;13.25;7.90;;;;;;;;;;5031042;28;20075;-87
2023/12/23 01:28:26;;;;;;;21.80;12.88;;;;;;;;;;5031061;28;20044;-85
2023/12/23 01:30:52;;;;;;;16.17;9.13;;;;;;;;;;5027610;28;20475;-85
2023/12/23 01:33:17;;;;;;;16.85;9.25;;;;;;;;;;5012432;28;20056;-87
2023/12/23 01:35:42;;;;;;;10.10;7.43;;;;;;;;;;5030313;28;20083;-88
2023/12/23 01:38:08;;;;;;;9.05;6.38;;;;;;;;;;5030608;28;20055;-87
2023/12/23 01:40:33;;;;;;;53.08;36.42;;;;;;;;;;5030428;28;20381;-87
2023/12/23 01:42:59;;;;;;;8.20;5.45;;;;;;;;;;5012961;28;20025;-88
2023/12/23 01:45:24;;;;;;;10.90;6.53;;;;;;;;;;5028950;28;20039;-87
2023/12/23 01:47:50;;;;;;;21.48;13.00;;;;;;;;;;5013092;28;20025;-86
2023/12/23 01:50:16;;;;;;;39.13;29.63;;;;;;;;;;5030641;28;20510;-86
2023/12/23 01:52:42;;;;;;;15.23;9.50;;;;;;;;;;5012453;28;20456;-85
2023/12/23 01:55:08;;;;;;;26.48;18.38;;;;;;;;;;5029001;28;20053;-85
2023/12/23 01:57:33;;;;;;;7.68;5.53;;;;;;;;;;5012570;28;20345;-86
2023/12/23 01:59:59;;;;;;;11.88;8.73;;;;;;;;;;5030245;28;20285;-85
2023/12/23 02:02:25;;;;;;;10.05;7.20;;;;;;;;;;5028681;28;20191;-85
2023/12/23 02:04:51;;;;;;;6.03;4.63;;;;;;;;;;5029751;28;20033;-85
2023/12/23 02:07:16;;;;;;;8.77;4.75;;;;;;;;;;5028675;28;20025;-85
2023/12/23 02:09:41;;;;;;;12.10;8.75;;;;;;;;;;5029603;28;20033;-85
2023/12/23 02:12:15;;;;;;;6.97;5.20;;;;;;;;;;5030129;28;20021;-85
2023/12/23 02:14:41;;;;;;;7.35;5.78;;;;;;;;;;5012322;28;20018;-85
2023/12/23 02:17:08;;;;;;;4.72;3.92;;;;;;;;;;5024943;28;20037;-85
2023/12/23 02:19:33;;;;;;;6.00;5.10;;;;;;;;;;5011635;28;20500;-86
2023/12/23 02:21:58;;;;;;;8.27;5.07;;;;;;;;;;5008142;28;20088;-88
2023/12/23 02:24:24;;;;;;;7.05;5.45;;;;;;;;;;5022980;28;20049;-88
2023/12/23 02:26:52;;;;;;;7.80;4.90;;;;;;;;;;5030321;28;20345;-87
2023/12/23 02:29:18;;;;;;;7.03;5.10;;;;;;;;;;5011627;28;20040;-88
2023/12/23 02:31:44;;;;;;;14.80;8.68;;;;;;;;;;5029620;28;20029;-87
2023/12/23 02:34:09;;;;;;;14.88;9.85;;;;;;;;;;5028066;28;20096;-88
2023/12/23 02:36:34;;;;;;;18.77;11.65;;;;;;;;;;5011990;28;20027;-88
2023/12/23 02:39:00;;;;;;;29.98;21.00;;;;;;;;;;5029123;28;20112;-88
2023/12/23 02:41:25;;;;;;;16.63;11.07;;;;;;;;;;5011762;28;20113;-88
2023/12/23 02:43:50;;;;;;;8.82;6.07;;;;;;;;;;5028899;28;20107;-88
2023/12/23 02:46:16;;;;;;;9.35;5.35;;;;;;;;;;5029321;28;20031;-88
2023/12/23 02:48:41;;;;;;;9.93;6.80;;;;;;;;;;5029001;28;20048;-87
2023/12/23 02:51:06;;;;;;;7.00;4.93;;;;;;;;;;5011680;28;20018;-87
2023/12/23 02:53:32;;;;;;;13.20;8.25;;;;;;;;;;5028561;28;20095;-88
2023/12/23 02:55:57;;;;;;;12.18;5.95;;;;;;;;;;5028332;28;20018;-87
2023/12/23 02:58:23;;;;;;;13.88;10.55;;;;;;;;;;5028002;28;20116;-87
2023/12/23 03:00:48;;;;;;;9.07;4.68;;;;;;;;;;5010944;28;20026;-87
2023/12/23 03:03:13;;;;;;;15.98;9.88;;;;;;;;;;5030676;28;20017;-87
2023/12/23 03:05:38;;;;;;;8.48;5.00;;;;;;;;;;5027979;28;20468;-87
2023/12/23 03:08:04;;;;;;;8.50;4.57;;;;;;;;;;5028677;28;20028;-88
2023/12/23 03:10:29;;;;;;;5.90;3.75;;;;;;;;;;5029072;28;20018;-88
2023/12/23 03:12:54;;;;;;;13.13;7.40;;;;;;;;;;5010652;28;20029;-87
2023/12/23 03:15:20;;;;;;;4.82;3.42;;;;;;;;;;5027394;28;20136;-87
2023/12/23 03:17:45;;;;;;;8.20;3.65;;;;;;;;;;5028801;28;20025;-88
2023/12/23 03:20:11;;;;;;;7.07;3.50;;;;;;;;;;5007670;28;20080;-87
2023/12/23 03:22:36;;;;;;;22.83;11.07;;;;;;;;;;4991707;28;20460;-87
2023/12/23 03:25:02;;;;;;;24.40;18.92;;;;;;;;;;5020857;28;20113;-87
2023/12/23 03:27:27;;;;;;;14.32;8.73;;;;;;;;;;5028621;28;20021;-87
2023/12/23 03:29:53;;;;;;;8.98;4.82;;;;;;;;;;5007645;28;20079;-88
2023/12/23 03:32:18;;;;;;;8.10;4.82;;;;;;;;;;5008658;28;20380;-87
2023/12/23 03:34:43;;;;;;;8.07;4.32;;;;;;;;;;5015734;28;20038;-88
2023/12/23 03:37:09;;;;;;;9.40;4.65;;;;;;;;;;5010836;28;20104;-88
2023/12/23 03:39:35;;;;;;;8.68;5.70;;;;;;;;;;5007188;28;20114;-88
2023/12/23 03:42:00;;;;;;;17.27;11.32;;;;;;;;;;4991030;28;20102;-87
2023/12/23 03:44:25;;;;;;;11.40;7.07;;;;;;;;;;5006864;28;20052;-87
2023/12/23 03:46:51;;;;;;;6.05;3.40;;;;;;;;;;5027316;28;20049;-88
2023/12/23 03:49:17;;;;;;;5.25;3.13;;;;;;;;;;5028755;28;20022;-87
2023/12/23 03:51:42;;;;;;;10.27;4.60;;;;;;;;;;5028293;28;20057;-87
2023/12/23 03:54:08;;;;;;;7.18;4.53;;;;;;;;;;5028213;28;20326;-88
2023/12/23 03:56:33;;;;;;;6.38;3.65;;;;;;;;;;5022000;28;20025;-87
2023/12/23 03:58:58;;;;;;;6.75;3.90;;;;;;;;;;5027123;28;20129;-87
2023/12/23 04:01:24;;;;;;;5.07;3.80;;;;;;;;;;5007281;28;20032;-87
2023/12/23 04:03:50;;;;;;;6.32;3.35;;;;;;;;;;4990278;28;20018;-88
2023/12/23 04:06:15;;;;;;;5.07;3.65;;;;;;;;;;4999151;28;20718;-87
2023/12/23 04:08:41;;;;;;;9.57;4.40;;;;;;;;;;5010651;28;20030;-88
2023/12/23 04:11:06;;;;;;;2.72;2.50;;;;;;;;;;5009833;28;20022;-88
2023/12/23 04:13:31;;;;;;;7.28;4.10;;;;;;;;;;5028142;28;20025;-88
2023/12/23 04:15:57;;;;;;;7.95;4.43;;;;;;;;;;5018644;28;20050;-88
2023/12/23 04:18:22;;;;;;;7.45;3.97;;;;;;;;;;5029036;28;20535;-87
2023/12/23 04:20:47;;;;;;;8.25;4.40;;;;;;;;;;5010759;28;20022;-88
2023/12/23 04:23:12;;;;;;;3.92;3.45;;;;;;;;;;5028154;28;20025;-88
2023/12/23 04:25:38;;;;;;;7.43;3.42;;;;;;;;;;5030257;28;20056;-87
2023/12/23 04:28:03;;;;;;;5.97;3.25;;;;;;;;;;5009966;28;20038;-87
2023/12/23 04:30:29;;;;;;;6.72;3.47;;;;;;;;;;5027741;28;20027;-87
2023/12/23 04:32:54;;;;;;;4.05;3.40;;;;;;;;;;5027069;28;20048;-86
2023/12/23 04:35:19;;;;;;;6.75;3.80;;;;;;;;;;5025918;28;20071;-87
2023/12/23 04:37:45;;;;;;;5.53;3.72;;;;;;;;;;5027101;28;20026;-86
2023/12/23 04:40:11;;;;;;;5.65;3.47;;;;;;;;;;5009563;28;20061;-87
2023/12/23 04:42:36;;;;;;;12.38;6.90;;;;;;;;;;4996824;28;20034;-87
2023/12/23 04:45:02;;;;;;;12.43;9.77;;;;;;;;;;5027294;28;20017;-87
2023/12/23 04:47:27;;;;;;;8.70;5.03;;;;;;;;;;5027520;28;20151;-87
2023/12/23 04:49:52;;;;;;;11.05;6.47;;;;;;;;;;5027598;28;20024;-87
2023/12/23 04:52:18;;;;;;;15.32;8.52;;;;;;;;;;5027607;28;20099;-87
2023/12/23 04:54:43;;;;;;;17.30;8.93;;;;;;;;;;5025729;28;20028;-87
2023/12/23 04:57:08;;;;;;;14.38;8.32;;;;;;;;;;5025969;28;20483;-87
2023/12/23 04:59:33;;;;;;;14.32;7.53;;;;;;;;;;5025815;28;20029;-87
2023/12/23 05:01:59;;;;;;;17.77;9.13;;;;;;;;;;5009489;28;20017;-87
2023/12/23 05:04:25;;;;;;;10.85;6.13;;;;;;;;;;5018754;28;20025;-88
2023/12/23 05:06:50;;;;;;;15.30;7.22;;;;;;;;;;5026026;28;20060;-87
2023/12/23 05:09:15;;;;;;;29.17;11.98;;;;;;;;;;5006024;28;20427;-88
2023/12/23 05:11:40;;;;;;;18.73;8.85;;;;;;;;;;5006235;28;20098;-88
2023/12/23 05:14:06;;;;;;;18.77;9.88;;;;;;;;;;5011610;28;20021;-88
2023/12/23 05:16:31;;;;;;;8.13;5.43;;;;;;;;;;5027462;28;20018;-87
2023/12/23 05:18:56;;;;;;;23.10;11.48;;;;;;;;;;5025597;28;20028;-87
2023/12/23 05:21:22;;;;;;;16.48;8.38;;;;;;;;;;5027041;28;20434;-87
2023/12/23 05:23:47;;;;;;;9.50;4.85;;;;;;;;;;5009241;28;20025;-87
2023/12/23 05:26:16;;;;;;;9.70;5.20;;;;;;;;;;5026632;28;20025;-87
2023/12/23 05:28:41;;;;;;;36.30;16.83;;;;;;;;;;5025448;28;20036;-87
2023/12/23 05:31:06;;;;;;;13.43;7.93;;;;;;;;;;5025188;28;20112;-87
2023/12/23 05:33:32;;;;;;;27.88;11.93;;;;;;;;;;5026840;28;20430;-87
2023/12/23 05:35:57;;;;;;;21.92;10.70;;;;;;;;;;5027143;28;20013;-87
2023/12/23 05:38:22;;;;;;;41.70;19.60;;;;;;;;;;5027112;28;20029;-87
2023/12/23 05:40:48;;;;;;;30.73;14.73;;;;;;;;;;5027280;28;20072;-88
2023/12/23 05:43:13;;;;;;;38.42;17.92;;;;;;;;;;5008880;28;20026;-87
2023/12/23 05:45:38;;;;;;;21.20;10.80;;;;;;;;;;5019350;28;20041;-88
2023/12/23 05:48:04;;;;;;;21.63;11.40;;;;;;;;;;5009269;28;20144;-87
2023/12/23 05:50:30;;;;;;;23.17;12.90;;;;;;;;;;5019179;28;20018;-88
2023/12/23 05:52:55;;;;;;;20.45;11.52;;;;;;;;;;5026872;28;20151;-88
2023/12/23 05:55:20;;;;;;;16.25;8.25;;;;;;;;;;5012833;28;20051;-88
2023/12/23 05:57:46;;;;;;;13.98;8.18;;;;;;;;;;5013435;28;20053;-88
2023/12/23 06:00:11;;;;;;;17.63;9.25;;;;;;;;;;5009924;28;20029;-87
2023/12/23 06:02:37;;;;;;;11.77;8.15;;;;;;;;;;5019981;28;20392;-88
2023/12/23 06:05:02;;;;;;;15.02;7.68;;;;;;;;;;5012542;28;20021;-88
2023/12/23 06:07:29;;;;;;;19.98;13.40;;;;;;;;;;5012698;28;20269;-87
2023/12/23 06:09:54;;;;;;;5.20;4.50;;;;;;;;;;5012063;28;20083;-87
2023/12/23 06:12:19;;;;;;;9.77;4.90;;;;;;;;;;5024541;28;20517;-87
2023/12/23 06:14:45;;;;;;;5.22;2.75;;;;;;;;;;5012100;28;20149;-88
2023/12/23 06:17:10;;;;;;;2.75;2.47;;;;;;;;;;5011707;28;20053;-88
2023/12/23 06:19:35;;;;;;;3.85;2.33;;;;;;;;;;5030206;28;20036;-88
2023/12/23 06:22:01;;;;;;;3.10;2.80;;;;;;;;;;5011558;28;20473;-87
2023/12/23 06:24:26;;;;;;;2.60;2.40;;;;;;;;;;5029135;28;20036;-87
2023/12/23 06:26:52;;;;;;;2.03;1.88;;;;;;;;;;5012855;28;20049;-88
2023/12/23 06:29:17;;;;;;;2.90;2.35;;;;;;;;;;5027746;28;20084;-88
2023/12/23 06:31:42;;;;;;;4.75;3.08;;;;;;;;;;5018473;28;20522;-88
2023/12/23 06:34:08;;;;;;;3.20;2.50;;;;;;;;;;5037261;28;20041;-87
2023/12/23 06:36:33;;;;;;;7.20;3.13;;;;;;;;;;5037157;28;20025;-87
2023/12/23 06:38:58;;;;;;;4.57;2.83;;;;;;;;;;5014841;28;20774;-88
2023/12/23 06:41:24;;;;;;;6.88;3.22;;;;;;;;;;5034258;28;20055;-88
2023/12/23 06:43:49;;;;;;;2.58;2.20;;;;;;;;;;5037495;28;20013;-87
2023/12/23 06:46:14;;;;;;;2.95;2.20;;;;;;;;;;5018385;28;20029;-88
2023/12/23 06:48:39;;;;;;;2.33;2.13;;;;;;;;;;5036120;28;20021;-88
2023/12/23 06:51:06;;;;;;;4.88;2.30;;;;;;;;;;5019626;28;20013;-87
2023/12/23 06:53:31;;;;;;;2.90;2.25;;;;;;;;;;5020256;28;20652;-88
2023/12/23 06:55:57;;;;;;;2.83;2.35;;;;;;;;;;5039394;28;20083;-88
2023/12/23 06:58:22;;;;;;;2.53;2.17;;;;;;;;;;5039897;28;20297;-88
2023/12/23 07:00:48;;;;;;;3.92;2.72;;;;;;;;;;5039345;28;20419;-87
2023/12/23 07:03:13;;;;;;;2.55;2.30;;;;;;;;;;5039044;28;20181;-88
2023/12/23 07:05:38;;;;;;;3.33;2.15;;;;;;;;;;5019301;28;20791;-88
2023/12/23 07:08:04;;;;;;;2.00;1.80;;;;;;;;;;5021103;28;20029;-88
2023/12/23 07:10:29;;;;;;;2.33;2.13;;;;;;;;;;5012440;28;20014;-88
2023/12/23 07:12:55;;;;;;;2.08;1.88;;;;;;;;;;5011067;28;20021;-88
2023/12/23 07:15:21;;;;;;;2.20;2.00;;;;;;;;;;5029483;28;20623;-88
2023/12/23 07:17:47;;;;;;;2.95;2.13;;;;;;;;;;5020766;28;20506;-88
2023/12/23 07:20:13;;;;;;;2.28;2.05;;;;;;;;;;5027528;28;20021;-88
2023/12/23 07:22:38;;;;;;;1.90;1.77;;;;;;;;;;5021547;28;20468;-88
2023/12/23 07:25:03;;;;;;;2.28;2.05;;;;;;;;;;5010226;28;20029;-88
2023/12/23 07:27:29;;;;;;;1.83;1.73;;;;;;;;;;5028309;28;20029;-88
2023/12/23 07:29:54;;;;;;;2.20;2.00;;;;;;;;;;5028667;28;20018;-88
2023/12/23 07:32:19;;;;;;;2.13;1.92;;;;;;;;;;5028076;28;20021;-88
2023/12/23 07:34:45;;;;;;;2.00;1.80;;;;;;;;;;5010624;28;20041;-89
2023/12/23 07:37:10;;;;;;;2.47;2.20;;;;;;;;;;5028370;28;20028;-89
2023/12/23 07:39:35;;;;;;;2.45;2.10;;;;;;;;;;5010847;28;20029;-89
2023/12/23 07:42:01;;;;;;;3.92;2.03;;;;;;;;;;5027455;28;20095;-89
2023/12/23 07:44:26;;;;;;;1.77;1.58;;;;;;;;;;5027833;28;20479;-87
2023/12/23 07:46:53;;;;;;;2.30;2.10;;;;;;;;;;5010637;28;20021;-89
2023/12/23 07:49:18;;;;;;;2.08;1.70;;;;;;;;;;5010844;28;20124;-89
2023/12/23 07:51:43;;;;;;;2.55;2.28;;;;;;;;;;5010876;28;20534;-89
2023/12/23 07:54:09;;;;;;;3.03;2.25;;;;;;;;;;5027940;28;20530;-90
2023/12/23 07:56:34;;;;;;;3.75;2.58;;;;;;;;;;5027147;28;20017;-89
2023/12/23 07:58:59;;;;;;;2.30;2.10;;;;;;;;;;5028210;28;20017;-89
2023/12/23 08:01:25;;;;;;;1.77;1.63;;;;;;;;;;5010484;28;20025;-86
2023/12/23 08:03:50;;;;;;;2.65;2.45;;;;;;;;;;5028131;28;20530;-86
2023/12/23 08:06:16;;;;;;;2.08;1.88;;;;;;;;;;5028607;28;20398;-88
2023/12/23 08:08:42;;;;;;;5.57;2.53;;;;;;;;;;5028037;28;20025;-87
2023/12/23 08:11:07;;;;;;;2.70;2.50;;;;;;;;;;5010517;28;20499;-87
2023/12/23 08:13:33;;;;;;;2.60;2.30;;;;;;;;;;5027725;28;20020;-87
2023/12/23 08:15:59;;;;;;;3.70;2.40;;;;;;;;;;5028618;28;20027;-86
2023/12/23 08:18:24;;;;;;;2.53;2.33;;;;;;;;;;5025377;28;20021;-87
2023/12/23 08:20:49;;;;;;;3.53;2.30;;;;;;;;;;5029159;28;20029;-87
2023/12/23 08:23:14;;;;;;;2.72;2.53;;;;;;;;;;4990229;28;20388;-87
2023/12/23 08:25:40;;;;;;;6.75;3.22;;;;;;;;;;5012350;28;20066;-87
2023/12/23 08:28:06;;;;;;;2.47;2.22;;;;;;;;;;5010154;28;20021;-86
2023/12/23 08:30:32;;;;;;;4.55;3.22;;;;;;;;;;5026110;28;20017;-86
2023/12/23 08:32:57;;;;;;;4.25;2.75;;;;;;;;;;5021723;28;20042;-87
2023/12/23 08:35:22;;;;;;;2.95;2.30;;;;;;;;;;4990021;28;20026;-87
2023/12/23 08:37:48;;;;;;;36.78;12.07;;;;;;;;;;4990485;28;20025;-87
2023/12/23 08:40:13;;;;;;;7.90;3.70;;;;;;;;;;5007205;28;20022;-86
2023/12/23 08:42:38;;;;;;;8.82;4.38;;;;;;;;;;5004528;28;20029;-86
2023/12/23 08:45:04;;;;;;;4.15;2.72;;;;;;;;;;5007940;28;20419;-87
2023/12/23 08:47:29;;;;;;;51.78;17.98;;;;;;;;;;5007425;28;20025;-87
2023/12/23 08:49:55;;;;;;;3.75;2.40;;;;;;;;;;4992557;28;20097;-88
2023/12/23 08:52:20;;;;;;;5.00;2.85;;;;;;;;;;5007934;28;20050;-86
2023/12/23 08:54:45;;;;;;;2.88;2.55;;;;;;;;;;4990240;28;20068;-86
2023/12/23 08:57:11;;;;;;;5.70;3.20;;;;;;;;;;4990242;28;20108;-87
2023/12/23 08:59:36;;;;;;;14.25;5.97;;;;;;;;;;4989986;28;20026;-87
2023/12/23 09:02:03;;;;;;;16.20;7.60;;;;;;;;;;4992225;28;20110;-87
2023/12/23 09:04:29;;;;;;;3.72;2.83;;;;;;;;;;4996091;28;20316;-87
2023/12/23 09:06:54;;;;;;;15.68;6.13;;;;;;;;;;4989932;28;20018;-87
2023/12/23 09:09:19;;;;;;;3.20;2.83;;;;;;;;;;4997629;28;20018;-89
2023/12/23 09:11:45;;;;;;;15.93;6.68;;;;;;;;;;4970375;28;20786;-89
2023/12/23 09:14:10;;;;;;;44.92;24.70;;;;;;;;;;5006203;28;20800;-87
2023/12/23 09:16:36;;;;;;;3.35;2.42;;;;;;;;;;5007685;28;20022;-89
2023/12/23 09:19:01;;;;;;;2.40;2.20;;;;;;;;;;5007410;28;20084;-89
2023/12/23 09:21:26;;;;;;;13.27;6.57;;;;;;;;;;4989928;28;20026;-88
2023/12/23 09:23:52;;;;;;;3.60;2.95;;;;;;;;;;5007128;28;20026;-87
2023/12/23 09:26:18;;;;;;;29.55;14.45;;;;;;;;;;4989691;28;20396;-87
2023/12/23 09:28:43;;;;;;;2.50;2.30;;;;;;;;;;4994533;28;20403;-87
2023/12/23 09:31:09;;;;;;;2.88;2.22;;;;;;;;;;5010826;28;20024;-88
2023/12/23 09:33:35;;;;;;;2.42;2.17;;;;;;;;;;5020149;28;20124;-88
2023/12/23 09:36:00;;;;;;;3.38;2.50;;;;;;;;;;5012847;28;20159;-87
2023/12/23 09:38:25;;;;;;;3.17;2.10;;;;;;;;;;5012795;28;20029;-87
2023/12/23 09:40:51;;;;;;;5.03;2.50;;;;;;;;;;5030803;28;20095;-87
2023/12/23 09:43:16;;;;;;;2.88;2.40;;;;;;;;;;5029497;28;20557;-87
2023/12/23 09:45:42;;;;;;;3.33;2.78;;;;;;;;;;5012795;28;20037;-87
2023/12/23 09:48:08;;;;;;;2.70;2.50;;;;;;;;;;5011431;28;20120;-87
2023/12/23 09:50:33;;;;;;;2.72;2.40;;;;;;;;;;5030602;28;20116;-87
2023/12/23 09:53:00;;;;;;;3.58;3.03;;;;;;;;;;5029431;28;20064;-87
2023/12/23 09:55:25;;;;;;;3.05;2.78;;;;;;;;;;5028891;28;20022;-87
2023/12/23 09:57:51;;;;;;;3.05;2.78;;;;;;;;;;5012677;28;20044;-87
2023/12/23 10:00:16;;;;;;;2.58;2.38;;;;;;;;;;5016055;28;20057;-87
2023/12/23 10:02:41;;;;;;;3.08;2.88;;;;;;;;;;5012487;28;20033;-86
2023/12/23 10:05:07;;;;;;;2.42;2.22;;;;;;;;;;5030147;28;20486;-85
2023/12/23 10:07:32;;;;;;;2.45;2.03;;;;;;;;;;5029688;28;20022;-87
2023/12/23 10:09:58;;;;;;;2.58;2.38;;;;;;;;;;5012391;28;20049;-87
2023/12/23 10:12:23;;;;;;;4.82;3.00;;;;;;;;;;5012610;28;20030;-87
2023/12/23 10:14:49;;;;;;;3.63;2.70;;;;;;;;;;5030193;28;20468;-88
2023/12/23 10:17:14;;;;;;;3.47;3.17;;;;;;;;;;5029880;28;20136;-86
2023/12/23 10:19:40;;;;;;;2.80;2.60;;;;;;;;;;5029087;28;20033;-88
2023/12/23 10:22:07;;;;;;;3.53;3.22;;;;;;;;;;5030113;28;20448;-86
2023/12/23 10:24:36;;;;;;;4.85;3.30;;;;;;;;;;5011934;28;20044;-86
2023/12/23 10:27:01;;;;;;;4.03;3.38;;;;;;;;;;5018409;28;20468;-86
2023/12/23 10:29:26;;;;;;;4.50;3.17;;;;;;;;;;5011526;28;20395;-87
2023/12/23 10:31:55;;;;;;;3.72;2.75;;;;;;;;;;5011698;28;20104;-87
2023/12/23 10:34:20;;;;;;;3.03;2.67;;;;;;;;;;5011551;28;20411;-86
2023/12/23 10:36:46;;;;;;;3.15;2.85;;;;;;;;;;5012431;28;20374;-87
2023/12/23 10:39:28;;;;;;;3.05;2.75;;;;;;;;;;5028551;28;20035;-87
2023/12/23 10:42:01;;;;;;;1.80;1.70;;;;;;;;;;5029260;28;20372;-87
2023/12/23 10:44:27;;;;;;;1.58;1.50;;;;;;;;;;5011602;28;20025;-87
2023/12/23 10:46:53;;;;;;;1.30;1.30;;;;;;;;;;5028472;28;20382;-87
2023/12/23 10:49:21;;;;;;;1.50;1.40;;;;;;;;;;5029382;28;20025;-87
2023/12/23 10:51:46;;;;;;;1.30;1.30;;;;;;;;;;5028270;28;20550;-87
2023/12/23 10:54:12;;;;;;;1.20;1.20;;;;;;;;;;5029488;28;20032;-87
2023/12/23 10:56:39;;;;;;;1.52;1.42;;;;;;;;;;5011701;28;20109;-88
2023/12/23 10:59:05;;;;;;;1.30;1.30;;;;;;;;;;5025103;28;20060;-87
2023/12/23 11:01:32;;;;;;;1.20;1.20;;;;;;;;;;5012006;28;20028;-87
2023/12/23 11:04:00;;;;;;;1.10;1.10;;;;;;;;;;5008276;28;20030;-87
2023/12/23 11:06:26;;;;;;;1.60;1.50;;;;;;;;;;4992190;28;20017;-87
2023/12/23 11:08:51;;;;;;;1.67;1.58;;;;;;;;;;5008294;28;20021;-87
2023/12/23 11:11:17;;;;;;;9.63;4.55;;;;;;;;;;5009631;28;20033;-87
2023/12/23 11:13:42;;;;;;;6.75;3.90;;;;;;;;;;5000818;28;20048;-87
2023/12/23 11:16:10;;;;;;;9.52;5.55;;;;;;;;;;5027455;28;20368;-88
2023/12/23 11:18:37;;;;;;;2.33;1.90;;;;;;;;;;5027849;28;20053;-87
2023/12/23 11:21:02;;;;;;;1.80;1.70;;;;;;;;;;5011102;28;20033;-87
2023/12/23 11:23:33;;;;;;;9.88;7.25;;;;;;;;;;5028084;28;20116;-87
2023/12/23 11:25:59;;;;;;;6.65;3.30;;;;;;;;;;5025092;28;20493;-87
2023/12/23 11:28:26;;;;;;;5.03;3.22;;;;;;;;;;5029193;28;20101;-87
2023/12/23 11:31:00;;;;;;;24.98;16.00;;;;;;;;;;5028990;28;20025;-86
2023/12/23 11:33:27;;;;;;;16.90;8.30;;;;;;;;;;5028861;28;20117;-88
2023/12/23 11:35:53;;;;;;;72.30;27.60;;;;;;;;;;5011536;28;20021;-86
2023/12/23 11:38:21;;;;;;;59.00;22.48;;;;;;;;;;5028533;28;20025;-86
2023/12/23 11:40:50;;;;;;;28.03;11.97;;;;;;;;;;5024272;28;20472;-87
2023/12/23 11:43:16;;;;;;;221.73;64.40;;;;;;;;;;5025258;28;20025;-87
2023/12/23 11:45:43;;;;;;;61.17;21.85;;;;;;;;;;5010328;28;20116;-87
2023/12/23 11:48:08;;;;;;;10.10;5.68;;;;;;;;;;5010485;28;20391;-87
2023/12/23 11:50:34;;;;;;;80.32;29.63;;;;;;;;;;5010374;28;20029;-87
2023/12/23 11:52:59;;;;;;;119.07;40.17;;;;;;;;;;5010131;28;20029;-87
2023/12/23 11:55:25;;;;;;;30.10;15.73;;;;;;;;;;5013754;28;20056;-86
2023/12/23 11:57:50;;;;;;;5.85;2.75;;;;;;;;;;5026842;28;20022;-87
2023/12/23 12:00:17;;;;;;;1.92;1.70;;;;;;;;;;5007167;28;20021;-87
2023/12/23 12:02:42;;;;;;;1.20;1.20;;;;;;;;;;4990323;28;20271;-87
2023/12/23 12:05:08;;;;;;;53.20;48.33;;;;;;;;;;4990428;28;20025;-87
2023/12/23 12:07:34;;;;;;;9.02;6.47;;;;;;;;;;5028090;28;20098;-87
2023/12/23 12:09:59;;;;;;;6.88;3.22;;;;;;;;;;5010266;28;20024;-87
2023/12/23 12:12:26;;;;;;;14.57;8.38;;;;;;;;;;5006936;28;20018;-87
2023/12/23 12:14:51;;;;;;;58.20;27.02;;;;;;;;;;4990125;28;20416;-86
2023/12/23 12:17:16;;;;;;;6.63;4.07;;;;;;;;;;5019749;28;20028;-87
2023/12/23 12:19:42;;;;;;;1.63;1.52;;;;;;;;;;5010285;28;20025;-87
2023/12/23 12:22:07;;;;;;;1.30;1.20;;;;;;;;;;5025980;28;20386;-87
2023/12/23 12:24:34;;;;;;;49.85;27.13;;;;;;;;;;5027719;28;20040;-87
2023/12/23 12:27:01;;;;;;;24.27;12.35;;;;;;;;;;5014852;28;20112;-87
2023/12/23 12:29:26;;;;;;;40.38;19.80;;;;;;;;;;5026308;28;20118;-86
2023/12/23 12:31:52;;;;;;;43.72;30.88;;;;;;;;;;5006518;28;20080;-87
2023/12/23 12:34:18;;;;;;;90.97;50.55;;;;;;;;;;4998846;28;20141;-87
2023/12/23 12:36:43;;;;;;;94.93;48.40;;;;;;;;;;5025916;28;20387;-86
2023/12/23 12:39:09;;;;;;;200.13;130.63;;;;;;;;;;5009513;28;20017;-87
2023/12/23 12:41:37;;;;;;;211.27;101.35;;;;;;;;;;5027383;28;20018;-87
2023/12/23 12:44:04;;;;;;;96.03;53.33;;;;;;;;;;4990326;28;20460;-86
2023/12/23 12:46:33;;;;;;;40.78;28.17;;;;;;;;;;5007757;28;20472;-86
2023/12/23 12:49:02;;;;;;;170.45;104.22;;;;;;;;;;5023723;28;20472;-87
2023/12/23 12:51:27;;;;;;;30.02;19.40;;;;;;;;;;5009604;28;20033;-87
2023/12/23 12:53:53;;;;;;;45.67;32.45;;;;;;;;;;5019319;28;20387;-86
2023/12/23 12:56:21;;;;;;;39.60;26.23;;;;;;;;;;5027086;28;20186;-86
2023/12/23 12:58:47;;;;;;;45.83;26.92;;;;;;;;;;5027574;28;20041;-86
2023/12/23 13:01:13;;;;;;;64.65;33.00;;;;;;;;;;5009675;28;20053;-86
2023/12/23 13:03:38;;;;;;;69.82;42.80;;;;;;;;;;5018287;28;20518;-86
2023/12/23 13:06:04;;;;;;;66.63;37.67;;;;;;;;;;5012927;28;20105;-87
2023/12/23 13:08:29;;;;;;;63.78;39.40;;;;;;;;;;5010028;28;20029;-86
2023/12/23 13:10:54;;;;;;;28.08;18.25;;;;;;;;;;4993730;28;20361;-86
2023/12/23 13:13:20;;;;;;;35.20;23.58;;;;;;;;;;4998989;28;20045;-85
2023/12/23 13:15:45;;;;;;;19.13;14.23;;;;;;;;;;5031175;28;20405;-86
2023/12/23 13:18:10;;;;;;;20.35;15.98;;;;;;;;;;5029686;28;20029;-87
2023/12/23 13:20:36;;;;;;;10.35;7.32;;;;;;;;;;5030828;28;20071;-86
2023/12/23 13:23:02;;;;;;;11.07;8.38;;;;;;;;;;5013070;28;20021;-86
2023/12/23 13:25:27;;;;;;;8.45;5.55;;;;;;;;;;5030275;28;20021;-86
2023/12/23 13:27:52;;;;;;;17.52;14.85;;;;;;;;;;5013240;28;20045;-86
2023/12/23 13:30:18;;;;;;;15.38;11.48;;;;;;;;;;5031147;28;20375;-86
2023/12/23 13:32:43;;;;;;;12.82;10.00;;;;;;;;;;5028494;28;20013;-87
2023/12/23 13:35:09;;;;;;;47.38;29.77;;;;;;;;;;5021892;28;20042;-86
2023/12/23 13:37:34;;;;;;;20.33;16.23;;;;;;;;;;5030815;28;20025;-86
2023/12/23 13:40:00;;;;;;;18.42;14.98;;;;;;;;;;5018715;28;20035;-86
2023/12/23 13:42:25;;;;;;;22.48;14.60;;;;;;;;;;5012928;28;20030;-86
2023/12/23 13:44:51;;;;;;;15.15;11.68;;;;;;;;;;5030379;28;20494;-86
2023/12/23 13:47:16;;;;;;;28.58;16.42;;;;;;;;;;5030809;28;20056;-87
2023/12/23 13:49:42;;;;;;;12.52;9.23;;;;;;;;;;4996465;28;20118;-86
2023/12/23 13:52:07;;;;;;;14.43;8.80;;;;;;;;;;5030709;28;20479;-86
2023/12/23 13:54:33;;;;;;;18.80;12.13;;;;;;;;;;5028771;28;20490;-86
2023/12/23 13:56:58;;;;;;;12.98;10.73;;;;;;;;;;5012343;28;20030;-86
2023/12/23 13:59:23;;;;;;;12.18;8.35;;;;;;;;;;5012557;28;20033;-85
2023/12/23 14:01:48;;;;;;;18.80;12.52;;;;;;;;;;5026332;28;20148;-85
2023/12/23 14:04:15;;;;;;;19.27;12.52;;;;;;;;;;5030511;28;20041;-85
2023/12/23 14:06:40;;;;;;;16.30;9.60;;;;;;;;;;5030215;28;20394;-85
2023/12/23 14:09:06;;;;;;;28.63;18.05;;;;;;;;;;5029566;28;20037;-85
2023/12/23 14:11:31;;;;;;;22.83;15.32;;;;;;;;;;5021370;28;20462;-85
2023/12/23 14:13:58;;;;;;;130.40;57.85;;;;;;;;;;5030336;28;20792;-85
2023/12/23 14:16:23;;;;;;;30.50;21.63;;;;;;;;;;5010828;28;20022;-86
2023/12/23 14:18:48;;;;;;;33.80;21.67;;;;;;;;;;5012059;28;20261;-86
2023/12/23 14:21:13;;;;;;;39.03;19.85;;;;;;;;;;5014480;28;20036;-85
2023/12/23 14:23:39;;;;;;;36.67;17.05;;;;;;;;;;5029745;28;20032;-86